Time;durP1;ratioP1;P1;durP2;ratioP2;P2;SDS_P1;SDS_P2;PMS_P1;PMS_P2;Temp;Humidity;BMP_temperature;BMP_pressure;BME280_temperature;BME280_humidity;BME280_pressure;Samples;Min_cycle;Max_cycle;Signal;HPM_P1;HPM_P2
2021/05/16 00:01:31;;;;;;;1999.90;999.90;;;;;;;11.61;100.00;-18218.16;5078977;28;20256;-73
2021/05/16 00:04:17;;;;;;;1999.90;999.90;;;;;;;11.38;100.00;-18212.03;5079473;28;20210;-73
2021/05/16 00:07:04;;;;;;;1999.90;999.90;;;;;;;11.45;100.00;-18213.91;5079001;28;20206;-73
2021/05/16 00:09:52;;;;;;;1999.90;999.90;;;;;;;11.59;100.00;-18217.63;5078902;28;20220;-73
2021/05/16 00:12:39;;;;;;;1999.90;999.90;;;;;;;11.68;100.00;-18219.91;5079513;28;20200;-73
2021/05/16 00:15:26;;;;;;;1999.90;999.90;;;;;;;11.39;100.00;-18212.28;5081918;28;20215;-72
2021/05/16 00:18:12;;;;;;;1999.90;999.90;;;;;;;11.34;100.00;-18210.97;5079246;28;20365;-73
2021/05/16 00:20:59;;;;;;;1999.90;999.90;;;;;;;11.05;100.00;-18203.47;5078649;28;20204;-73
2021/05/16 00:23:48;;;;;;;1999.90;999.90;;;;;;;11.08;100.00;-18204.00;5079091;28;20541;-73
2021/05/16 00:26:35;;;;;;;1999.90;999.90;;;;;;;11.17;100.00;-18206.41;5078241;28;20262;-73
2021/05/16 00:29:24;;;;;;;1999.90;999.90;;;;;;;11.49;100.00;-18214.97;5079151;28;20354;-74
2021/05/16 00:32:10;;;;;;;1999.90;999.90;;;;;;;11.40;100.00;-18212.56;5078371;28;20200;-73
2021/05/16 00:34:57;;;;;;;1999.90;999.90;;;;;;;11.42;100.00;-18213.09;5078499;28;20203;-74
2021/05/16 00:37:44;;;;;;;1999.90;999.90;;;;;;;11.53;100.00;-18215.91;5078142;28;20284;-73
2021/05/16 00:40:33;;;;;;;1999.90;999.90;;;;;;;11.69;100.00;-18220.31;5078569;28;20200;-73
2021/05/16 00:43:19;;;;;;;1999.90;999.90;;;;;;;11.36;100.00;-18211.50;5078500;28;20200;-74
2021/05/16 00:46:09;;;;;;;1999.90;999.90;;;;;;;11.35;100.00;-18211.38;5078554;28;20202;-73
2021/05/16 00:48:55;;;;;;;1999.90;999.90;;;;;;;11.49;100.00;-18214.97;5077990;28;20297;-73
2021/05/16 00:51:42;;;;;;;1999.90;999.90;;;;;;;11.28;100.00;-18209.50;5077942;28;20350;-73
2021/05/16 00:54:31;;;;;;;1999.90;999.90;;;;;;;11.52;100.00;-18215.63;5078144;28;20202;-73
2021/05/16 00:57:17;;;;;;;1999.90;999.90;;;;;;;11.60;100.00;-18217.78;5077463;28;20240;-73
2021/05/16 01:00:05;;;;;;;1999.90;999.90;;;;;;;11.55;100.00;-18216.44;5078520;28;20208;-73
2021/05/16 01:02:51;;;;;;;1999.90;999.90;;;;;;;11.55;100.00;-18216.56;5077617;28;20299;-73
2021/05/16 01:05:42;;;;;;;1999.90;999.90;;;;;;;11.21;100.00;-18207.63;5077665;28;20264;-73
2021/05/16 01:08:28;;;;;;;1999.90;999.90;;;;;;;11.43;100.00;-18213.22;5077646;28;20695;-74
2021/05/16 01:11:17;;;;;;;1999.90;999.90;;;;;;;11.44;100.00;-18213.50;5077373;28;20222;-73
2021/05/16 01:14:06;;;;;;;1999.90;999.90;;;;;;;11.37;100.00;-18211.75;5077595;28;20477;-73
2021/05/16 01:16:52;;;;;;;1999.90;999.90;;;;;;;11.44;100.00;-18213.50;5078446;28;20199;-73
2021/05/16 01:19:39;;;;;;;1999.90;999.90;;;;;;;11.31;100.00;-18210.28;5077960;28;20342;-72
2021/05/16 01:22:26;;;;;;;1999.90;999.90;;;;;;;11.41;100.00;-18212.81;5077528;28;20297;-73
2021/05/16 01:25:12;;;;;;;1999.90;999.90;;;;;;;11.43;100.00;-18213.38;5078057;28;20634;-73
2021/05/16 01:28:01;;;;;;;1999.90;999.90;;;;;;;11.16;100.00;-18206.28;5077526;28;20197;-73
2021/05/16 01:30:50;;;;;;;1999.90;999.90;;;;;;;11.47;100.00;-18214.31;5077508;28;20218;-73
2021/05/16 01:33:37;;;;;;;1999.90;999.90;;;;;;;10.81;100.00;-18196.94;5078016;28;20203;-72
2021/05/16 01:36:23;;;;;;;1999.90;999.90;;;;;;;10.88;100.00;-18198.94;5077424;28;20200;-72
2021/05/16 01:39:13;;;;;;;1999.90;999.90;;;;;;;11.22;100.00;-18207.88;5077622;28;20229;-72
2021/05/16 01:42:03;;;;;;;1999.90;999.90;;;;;;;11.20;100.00;-18207.22;5077026;28;20680;-72
2021/05/16 01:44:49;;;;;;;1999.90;999.90;;;;;;;11.23;100.00;-18208.16;5077767;28;20199;-73
2021/05/16 01:47:34;;;;;;;1999.90;999.90;;;;;;;11.38;100.00;-18212.03;5076962;28;20732;-73
2021/05/16 01:50:24;;;;;;;1999.90;999.90;;;;;;;11.28;100.00;-18209.50;5076976;28;20626;-72
2021/05/16 01:53:10;;;;;;;1999.90;999.90;;;;;;;11.40;100.00;-18212.56;5076664;28;20207;-73
2021/05/16 01:55:57;;;;;;;1999.90;999.90;;;;;;;11.31;100.00;-18210.28;5076945;28;20203;-73
2021/05/16 01:58:44;;;;;;;1999.90;999.90;;;;;;;11.46;100.00;-18214.03;5075693;28;20540;-73
2021/05/16 02:01:30;;;;;;;1999.90;999.90;;;;;;;11.61;100.00;-18218.16;5076001;28;20193;-73
2021/05/16 02:04:16;;;;;;;1999.90;999.90;;;;;;;11.57;100.00;-18217.09;5076413;28;20250;-73
2021/05/16 02:07:02;;;;;;;1999.90;999.90;;;;;;;11.46;100.00;-18214.03;5076175;28;20564;-73
2021/05/16 02:09:50;;;;;;;1999.90;999.90;;;;;;;11.48;100.00;-18214.56;5076814;28;20215;-73
2021/05/16 02:12:41;;;;;;;1999.90;999.90;;;;;;;11.12;100.00;-18205.09;5076699;28;20210;-73
2021/05/16 02:15:27;;;;;;;1999.90;999.90;;;;;;;11.44;100.00;-18213.63;5076360;28;20252;-73
2021/05/16 02:18:17;;;;;;;1999.90;999.90;;;;;;;11.51;100.00;-18215.38;5076482;28;20223;-72
2021/05/16 02:21:04;;;;;;;1999.90;999.90;;;;;;;11.06;100.00;-18203.59;5076690;28;20192;-73
2021/05/16 02:23:51;;;;;;;1999.90;999.90;;;;;;;11.35;100.00;-18211.38;5076617;28;20200;-73
2021/05/16 02:26:37;;;;;;;1999.90;999.90;;;;;;;11.35;100.00;-18211.38;5076682;28;20203;-73
2021/05/16 02:29:25;;;;;;;1999.90;999.90;;;;;;;11.48;100.00;-18214.69;5076817;28;20219;-72
2021/05/16 02:32:11;;;;;;;1999.90;999.90;;;;;;;11.43;100.00;-18213.38;5076866;28;20350;-72
2021/05/16 02:34:57;;;;;;;1999.90;999.90;;;;;;;11.20;100.00;-18207.22;5076875;28;20196;-72
2021/05/16 02:37:43;;;;;;;1999.90;999.90;;;;;;;11.25;100.00;-18208.56;5078027;28;20191;-72
2021/05/16 02:40:30;;;;;;;1999.90;999.90;;;;;;;11.32;100.00;-18210.56;5080601;28;20277;-72
2021/05/16 02:43:15;;;;;;;1999.90;999.90;;;;;;;11.50;100.00;-18215.22;5080249;28;20297;-73
2021/05/16 02:46:02;;;;;;;1999.90;999.90;;;;;;;11.30;100.00;-18210.03;5080473;28;20204;-72
2021/05/16 02:48:48;;;;;;;1999.90;999.90;;;;;;;11.42;100.00;-18212.97;5080333;28;20199;-71
2021/05/16 02:51:34;;;;;;;1999.90;999.90;;;;;;;11.67;100.00;-18219.63;5080220;28;20196;-72
2021/05/16 02:54:20;;;;;;;1999.90;999.90;;;;;;;11.56;100.00;-18216.72;5079703;28;20199;-71
2021/05/16 02:57:06;;;;;;;1999.90;999.90;;;;;;;11.22;100.00;-18207.75;5079876;28;20494;-73
2021/05/16 02:59:52;;;;;;;1999.90;999.90;;;;;;;11.52;100.00;-18215.63;5080068;28;20235;-72
2021/05/16 03:02:40;;;;;;;1999.90;999.90;;;;;;;11.21;100.00;-18207.63;5079963;28;20258;-71
2021/05/16 03:05:28;;;;;;;1999.90;999.90;;;;;;;11.58;100.00;-18217.25;5079851;28;20226;-72
2021/05/16 03:08:14;;;;;;;1999.90;999.90;;;;;;;11.53;100.00;-18216.03;5079798;28;20255;-71
2021/05/16 03:11:01;;;;;;;1999.90;999.90;;;;;;;11.60;100.00;-18217.78;5079707;28;20208;-73
2021/05/16 03:13:47;;;;;;;1999.90;999.90;;;;;;;11.37;100.00;-18211.91;5079827;28;20259;-72
2021/05/16 03:16:33;;;;;;;1999.90;999.90;;;;;;;11.23;100.00;-18208.03;5080058;28;20327;-71
2021/05/16 03:19:20;;;;;;;1999.90;999.90;;;;;;;11.42;100.00;-18212.97;5079423;28;20289;-73
2021/05/16 03:22:09;;;;;;;1999.90;999.90;;;;;;;11.51;100.00;-18215.50;5079700;28;20256;-72
2021/05/16 03:24:55;;;;;;;1999.90;999.90;;;;;;;11.17;100.00;-18206.41;5079661;28;20192;-72
2021/05/16 03:27:42;;;;;;;1999.90;999.90;;;;;;;11.22;100.00;-18207.75;5079422;28;20282;-72
2021/05/16 03:30:28;;;;;;;1999.90;999.90;;;;;;;11.82;100.00;-18223.66;5079218;28;20223;-72
2021/05/16 03:33:14;;;;;;;1999.90;999.90;;;;;;;11.97;100.00;-18227.66;5079770;28;20358;-72
2021/05/16 03:36:01;;;;;;;1999.90;999.90;;;;;;;11.54;100.00;-18216.31;5079396;28;20482;-72
2021/05/16 03:38:47;;;;;;;1999.90;999.90;;;;;;;11.29;100.00;-18209.75;5079317;28;20232;-72
2021/05/16 03:41:34;;;;;;;1999.90;999.90;;;;;;;11.74;100.00;-18221.50;5079724;28;20591;-72
2021/05/16 03:44:19;;;;;;;1999.90;999.90;;;;;;;11.69;100.00;-18220.31;5079473;28;20203;-72
2021/05/16 03:47:05;;;;;;;1999.90;999.90;;;;;;;11.53;100.00;-18216.03;5079211;28;20587;-73
2021/05/16 03:49:51;;;;;;;1999.90;999.90;;;;;;;11.48;100.00;-18214.56;5078265;28;20200;-71
2021/05/16 03:52:39;;;;;;;1999.90;999.90;;;;;;;11.66;100.00;-18219.38;5079189;28;20200;-72
2021/05/16 03:55:25;;;;;;;1999.90;999.90;;;;;;;11.72;100.00;-18220.97;5078974;28;20192;-71
2021/05/16 03:58:12;;;;;;;1999.90;999.90;;;;;;;11.70;100.00;-18220.56;5080119;28;20503;-72
2021/05/16 04:00:58;;;;;;;1999.90;999.90;;;;;;;11.80;100.00;-18222.97;5080207;28;20484;-72
2021/05/16 04:03:44;;;;;;;1999.90;999.90;;;;;;;11.42;100.00;-18212.97;5079066;28;20200;-72
2021/05/16 04:06:30;;;;;;;1999.90;999.90;;;;;;;11.59;100.00;-18217.50;5078645;28;20200;-71
2021/05/16 04:09:17;;;;;;;1999.90;999.90;;;;;;;11.98;100.00;-18227.94;5078736;28;20280;-72
2021/05/16 04:12:04;;;;;;;1999.90;999.90;;;;;;;11.63;100.00;-18218.72;5079065;28;20301;-72
2021/05/16 04:14:51;;;;;;;1999.90;999.90;;;;;;;11.44;100.00;-18213.63;5078613;28;20212;-72
2021/05/16 04:17:37;;;;;;;1999.90;999.90;;;;;;;11.40;100.00;-18212.56;5079068;28;20281;-71
2021/05/16 04:20:24;;;;;;;1999.90;999.90;;;;;;;11.51;100.00;-18215.38;5078599;28;20223;-72
2021/05/16 04:23:09;;;;;;;1999.90;999.90;;;;;;;11.50;100.00;-18215.09;5078349;28;20233;-72
2021/05/16 04:25:57;;;;;;;1999.90;999.90;;;;;;;11.38;100.00;-18212.16;5078846;28;20532;-73
2021/05/16 04:28:45;;;;;;;1999.90;999.90;;;;;;;11.35;100.00;-18211.38;5078530;28;20192;-73
2021/05/16 04:31:31;;;;;;;1999.90;999.90;;;;;;;11.36;100.00;-18211.63;5078217;28;20196;-72
2021/05/16 04:34:19;;;;;;;1999.90;999.90;;;;;;;11.66;100.00;-18219.50;5078459;28;20203;-73
2021/05/16 04:37:05;;;;;;;1999.90;999.90;;;;;;;11.67;100.00;-18219.78;5078353;28;20203;-72
2021/05/16 04:39:51;;;;;;;1999.90;999.90;;;;;;;11.63;100.00;-18218.56;5077919;28;20371;-72
2021/05/16 04:42:41;;;;;;;1999.90;999.90;;;;;;;11.68;100.00;-18220.03;5078434;28;20529;-72
2021/05/16 04:45:27;;;;;;;1999.90;999.90;;;;;;;11.75;100.00;-18221.78;5078142;28;20613;-72
2021/05/16 04:48:16;;;;;;;1999.90;999.90;;;;;;;12.00;100.00;-18228.47;5078154;28;20254;-72
2021/05/16 04:51:02;;;;;;;1999.90;999.90;;;;;;;11.84;100.00;-18224.06;5077674;28;20226;-73
2021/05/16 04:53:48;;;;;;;1999.90;999.90;;;;;;;12.04;100.00;-18229.41;5077922;28;20663;-72
2021/05/16 04:56:34;;;;;;;1999.90;999.90;;;;;;;12.35;100.00;-18237.53;5077306;28;20671;-73
2021/05/16 04:59:21;;;;;;;1999.90;999.90;;;;;;;12.02;100.00;-18229.00;5078255;28;20240;-72
2021/05/16 05:02:07;;;;;;;1999.90;999.90;;;;;;;11.50;100.00;-18215.09;5077839;28;20722;-72
2021/05/16 05:04:56;;;;;;;1999.90;999.90;;;;;;;11.60;100.00;-18217.91;5078473;28;20219;-71
2021/05/16 05:07:43;;;;;;;1999.90;999.90;;;;;;;11.83;100.00;-18223.91;5077928;28;20498;-71
2021/05/16 05:10:29;;;;;;;1999.90;999.90;;;;;;;11.97;100.00;-18227.66;5077654;28;20191;-72
2021/05/16 05:13:16;;;;;;;1999.90;999.90;;;;;;;12.04;100.00;-18229.53;5077251;28;20207;-72
2021/05/16 05:16:03;;;;;;;1999.90;999.90;;;;;;;11.69;100.00;-18220.19;5077482;28;20191;-72
2021/05/16 05:18:49;;;;;;;1999.90;999.90;;;;;;;11.58;100.00;-18217.25;5077781;28;20228;-72
2021/05/16 05:21:35;;;;;;;1999.90;999.90;;;;;;;11.70;100.00;-18220.56;5077617;28;20199;-72
2021/05/16 05:24:23;;;;;;;1999.90;999.90;;;;;;;12.02;100.00;-18228.88;5077426;28;20338;-72
2021/05/16 05:30:23;;;;;;;1999.90;999.90;;;;;;;11.76;100.00;-18222.06;4852914;24;20385;-30
2021/05/16 05:33:12;;;;;;;1999.90;999.90;;;;;;;12.20;100.00;-18233.66;4810716;29;20486;-30
2021/05/16 05:35:59;;;;;;;1999.90;999.90;;;;;;;11.84;100.00;-18224.06;4810972;29;20557;-30
2021/05/16 05:38:45;;;;;;;1999.90;999.90;;;;;;;11.94;100.00;-18226.72;4811305;29;20333;-31
2021/05/16 05:41:31;;;;;;;1999.90;999.90;;;;;;;12.53;100.00;-18242.34;4819937;29;20205;-30
2021/05/16 05:44:17;;;;;;;1999.90;999.90;;;;;;;12.42;100.00;-18239.53;4811369;29;20610;-30
2021/05/16 05:47:03;;;;;;;1999.90;999.90;;;;;;;12.28;100.00;-18235.66;4811655;29;20225;-30
2021/05/16 05:49:55;;;;;;;1999.90;999.90;;;;;;;11.90;100.00;-18225.78;4810564;29;20213;-30
2021/05/16 05:52:41;;;;;;;1999.90;999.90;;;;;;;12.33;100.00;-18237.00;4810449;29;20251;-30
2021/05/16 05:55:29;;;;;;;1999.90;999.90;;;;;;;12.22;100.00;-18234.06;4809462;29;20263;-32
2021/05/16 05:58:16;;;;;;;1999.90;999.90;;;;;;;12.13;100.00;-18231.66;4810188;29;20274;-30
2021/05/16 06:01:02;;;;;;;1999.90;999.90;;;;;;;13.39;100.00;-18265.03;4810137;29;20212;-31
2021/05/16 06:03:49;;;;;;;1999.90;999.90;;;;;;;14.46;100.00;-18293.03;4791991;30;20213;-31
2021/05/16 06:06:36;;;;;;;1999.90;999.90;;;;;;;14.38;100.00;-18290.91;4801329;29;20494;-30
2021/05/16 06:09:22;;;;;;;1999.90;999.90;;;;;;;13.91;100.00;-18278.50;4809842;29;20624;-31
2021/05/16 06:12:11;;;;;;;1999.90;999.90;;;;;;;13.33;100.00;-18263.44;4811137;29;20294;-30
2021/05/16 06:14:59;;;;;;;1999.90;999.90;;;;;;;13.73;100.00;-18273.97;4814383;29;20212;-31
2021/05/16 06:17:46;;;;;;;1999.90;999.90;;;;;;;13.13;100.00;-18258.09;4813871;29;20213;-31
2021/05/16 06:20:37;;;;;;;1999.90;999.90;;;;;;;13.03;100.00;-18255.56;4823838;29;20309;-30
2021/05/16 06:23:35;;;;;;;1999.90;999.90;;;;;;;12.94;100.00;-18253.16;4828827;29;20263;-31
2021/05/16 06:26:22;;;;;;;1999.90;999.90;;;;;;;12.74;100.00;-18247.81;4825876;29;20205;-31
2021/05/16 06:29:10;;;;;;;1999.90;999.90;;;;;;;13.02;100.00;-18255.28;4829321;29;20228;-30
2021/05/16 06:31:57;;;;;;;1999.90;999.90;;;;;;;12.81;100.00;-18249.69;4816057;29;20509;-30
2021/05/16 06:34:44;;;;;;;1999.90;999.90;;;;;;;13.14;100.00;-18258.22;4819482;29;20309;-31
2021/05/16 06:37:30;;;;;;;1999.90;999.90;;;;;;;12.70;100.00;-18246.88;4819163;29;20639;-31
2021/05/16 06:40:17;;;;;;;1999.90;999.90;;;;;;;13.31;100.00;-18262.78;4818005;29;20300;-31
2021/05/16 06:43:05;;;;;;;1999.90;999.90;;;;;;;13.18;100.00;-18259.44;4812578;29;20213;-30
2021/05/16 06:45:51;;;;;;;1999.90;999.90;;;;;;;13.29;100.00;-18262.22;4813018;29;20508;-31
2021/05/16 06:48:40;;;;;;;1999.90;999.90;;;;;;;13.64;100.00;-18271.56;4813212;29;20484;-31
2021/05/16 06:51:28;;;;;;;1999.90;999.90;;;;;;;13.47;100.00;-18266.91;4812827;29;20220;-31
2021/05/16 06:54:17;;;;;;;1999.90;999.90;;;;;;;13.83;100.00;-18276.38;4812625;29;20606;-31
2021/05/16 06:57:09;;;;;;;1999.90;999.90;;;;;;;13.57;100.00;-18269.56;4815689;29;20597;-30
2021/05/16 06:59:56;;;;;;;1999.90;999.90;;;;;;;13.65;100.00;-18271.69;4813312;29;20685;-31
2021/05/16 07:02:41;;;;;;;1999.90;999.90;;;;;;;14.03;100.00;-18281.69;4813220;29;20209;-31
2021/05/16 07:05:28;;;;;;;1999.90;999.90;;;;;;;13.75;100.00;-18274.38;4813010;29;20290;-30
2021/05/16 07:08:14;;;;;;;1999.90;999.90;;;;;;;15.34;100.00;-18316.09;4814897;29;20294;-30
2021/05/16 07:11:00;;;;;;;1999.90;999.90;;;;;;;14.55;100.00;-18295.31;4813327;29;20217;-31
2021/05/16 07:13:48;;;;;;;1999.90;999.90;;;;;;;14.13;100.00;-18284.38;4815413;29;20589;-31
2021/05/16 07:16:34;;;;;;;1999.90;999.90;;;;;;;15.05;100.00;-18308.63;4813273;29;20594;-30
2021/05/16 07:19:21;;;;;;;1999.90;999.90;;;;;;;14.17;100.00;-18285.44;4816232;29;20226;-30
2021/05/16 07:22:08;;;;;;;1999.90;999.90;;;;;;;14.53;100.00;-18294.78;4816014;29;20613;-30
2021/05/16 07:24:54;;;;;;;1999.90;999.90;;;;;;;15.14;100.00;-18311.03;4816076;29;20298;-31
2021/05/16 07:27:40;;;;;;;1999.90;999.90;;;;;;;17.16;100.00;-18364.00;4813349;29;20277;-30
2021/05/16 07:30:27;;;;;;;1999.90;999.90;;;;;;;16.37;100.00;-18343.25;4802467;29;20244;-30
2021/05/16 07:33:16;;;;;;;1999.90;999.90;;;;;;;16.01;100.00;-18333.66;4795922;30;20398;-30
2021/05/16 07:36:04;;;;;;;1999.90;999.90;;;;;;;17.63;100.00;-18376.22;4794721;30;20610;-31
2021/05/16 07:38:51;;;;;;;1999.90;999.90;;;;;;;18.22;91.16;-18391.75;4795845;30;20312;-31
2021/05/16 07:41:37;;;;;;;1999.90;999.90;;;;;;;19.33;87.28;-18420.56;4796273;30;20226;-30
2021/05/16 07:44:24;;;;;;;1999.90;999.90;;;;;;;18.67;89.46;-18403.44;4795787;30;20216;-31
2021/05/16 07:47:14;;;;;;;1999.90;999.90;;;;;;;18.03;91.05;-18386.72;4795638;30;20281;-30
2021/05/16 07:50:06;;;;;;;1999.90;999.90;;;;;;;17.88;94.65;-18382.72;4794381;30;20214;-30
2021/05/16 07:52:57;;;;;;;1999.90;999.90;;;;;;;18.12;97.31;-18389.09;4793916;30;20363;-30
2021/05/16 07:55:43;;;;;;;1999.90;999.90;;;;;;;15.87;100.00;-18330.06;4796330;30;20289;-30
2021/05/16 07:58:30;;;;;;;1999.90;999.90;;;;;;;15.92;100.00;-18331.41;4797158;30;20674;-30
2021/05/16 08:01:16;;;;;;;1999.90;999.90;;;;;;;15.81;100.00;-18328.47;4794006;30;20665;-30
2021/05/16 08:04:04;;;;;;;1999.90;999.90;;;;;;;15.04;100.00;-18308.22;4797827;30;20211;-30
2021/05/16 08:06:52;;;;;;;1999.90;999.90;;;;;;;14.72;100.00;-18299.84;4797239;30;20311;-30
2021/05/16 08:09:41;;;;;;;1999.90;999.90;;;;;;;15.43;100.00;-18318.47;4797082;30;20264;-30
2021/05/16 08:12:30;;;;;;;1999.90;999.90;;;;;;;16.12;100.00;-18336.72;4794018;30;20506;-30
2021/05/16 08:15:18;;;;;;;1999.90;999.90;;;;;;;15.56;100.00;-18321.81;4794204;30;20211;-31
2021/05/16 08:18:08;;;;;;;1999.90;999.90;;;;;;;15.24;100.00;-18313.56;4793905;30;20271;-31
2021/05/16 08:20:56;;;;;;;1999.90;999.90;;;;;;;15.08;100.00;-18309.28;4795305;30;20495;-30
2021/05/16 08:23:43;;;;;;;1999.90;999.90;;;;;;;15.33;100.00;-18315.81;4793977;30;20268;-31
2021/05/16 08:26:29;;;;;;;1999.90;999.90;;;;;;;15.31;100.00;-18315.28;4793505;30;20206;-31
2021/05/16 08:29:18;;;;;;;1999.90;999.90;;;;;;;15.59;100.00;-18322.63;4796283;30;20276;-31
2021/05/16 08:32:05;;;;;;;1999.90;999.90;;;;;;;15.76;100.00;-18327.28;4796559;30;20352;-31
2021/05/16 08:34:53;;;;;;;1999.90;999.90;;;;;;;15.53;100.00;-18321.13;4795399;29;20210;-30
2021/05/16 08:37:45;;;;;;;1999.90;999.90;;;;;;;15.60;100.00;-18323.00;4793743;30;20303;-30
2021/05/16 08:40:36;;;;;;;1999.90;999.90;;;;;;;15.02;100.00;-18307.69;4793756;30;20253;-31
2021/05/16 08:43:23;;;;;;;1999.90;999.90;;;;;;;15.04;100.00;-18308.22;4793356;30;20210;-30
2021/05/16 08:46:09;;;;;;;1999.90;999.90;;;;;;;15.06;100.00;-18308.88;4793506;30;20210;-30
2021/05/16 08:48:57;;;;;;;1999.90;999.90;;;;;;;15.68;100.00;-18325.13;4794733;30;20289;-31
2021/05/16 08:51:51;;;;;;;1999.90;999.90;;;;;;;14.97;100.00;-18306.50;4795499;30;20253;-31
2021/05/16 08:54:38;;;;;;;1999.90;999.90;;;;;;;14.71;100.00;-18299.56;4804440;29;20640;-30
2021/05/16 08:57:28;;;;;;;1999.90;999.90;;;;;;;14.92;100.00;-18305.03;4813055;29;20209;-40
2021/05/16 09:00:16;;;;;;;1999.90;999.90;;;;;;;15.17;100.00;-18311.69;4810510;29;20238;-30
2021/05/16 09:03:05;;;;;;;1999.90;999.90;;;;;;;15.31;100.00;-18315.28;4798685;30;20524;-31
2021/05/16 09:05:54;;;;;;;1999.90;999.90;;;;;;;15.64;100.00;-18324.06;4808268;30;20256;-30
2021/05/16 09:08:40;;;;;;;1999.90;999.90;;;;;;;15.79;100.00;-18328.06;4801804;30;20246;-30
2021/05/16 09:11:27;;;;;;;1999.90;999.90;;;;;;;16.00;100.00;-18333.53;4792927;30;20301;-30
2021/05/16 09:19:05;;;;;;;1999.90;999.90;;;;;;;16.17;100.00;-18337.91;4811971;29;20209;-30
2021/05/16 09:21:52;;;;;;;1999.90;999.90;;;;;;;16.13;100.00;-18336.84;4811626;29;20209;-30
2021/05/16 09:24:38;;;;;;;1999.90;999.90;;;;;;;15.63;100.00;-18323.66;4811823;29;20210;-30
2021/05/16 09:27:28;;;;;;;1999.90;999.90;;;;;;;15.23;100.00;-18313.28;4812320;29;20211;-30
2021/05/16 09:30:33;;;;;;;1999.90;999.90;;;;;;;14.96;100.00;-18306.09;4811673;29;20358;-30
2021/05/16 09:33:24;;;;;;;1999.90;999.90;;;;;;;14.40;100.00;-18291.56;4811803;29;20209;-30
2021/05/16 09:36:11;;;;;;;1999.90;999.90;;;;;;;14.94;100.00;-18305.69;4813492;29;20205;-30
2021/05/16 09:39:12;;;;;;;1999.90;999.90;;;;;;;14.76;100.00;-18301.03;4814958;29;20211;-30
2021/05/16 09:42:07;;;;;;;1999.90;999.90;;;;;;;14.87;100.00;-18303.81;4814223;29;20233;-30
2021/05/16 09:44:57;;;;;;;1999.90;999.90;;;;;;;14.55;100.00;-18295.31;4813179;29;20598;-29
2021/05/16 09:47:46;;;;;;;1999.90;999.90;;;;;;;14.58;100.00;-18296.09;4811207;29;20231;-29
2021/05/16 09:50:33;;;;;;;1999.90;999.90;;;;;;;13.73;100.00;-18273.84;4811219;29;20283;-30
2021/05/16 09:53:23;;;;;;;1999.90;999.90;;;;;;;14.21;100.00;-18286.50;4811765;29;20233;-30
2021/05/16 09:56:13;;;;;;;1999.90;999.90;;;;;;;14.55;100.00;-18295.31;4812742;29;20275;-31
2021/05/16 09:59:02;;;;;;;1999.90;999.90;;;;;;;14.94;100.00;-18305.69;4811910;29;20289;-29
2021/05/16 10:01:52;;;;;;;1999.90;999.90;;;;;;;15.74;100.00;-18326.75;4816562;29;20288;-32
2021/05/16 10:04:39;;;;;;;1999.90;999.90;;;;;;;16.24;100.00;-18339.66;4815567;29;20232;-29
2021/05/16 10:07:28;;;;;;;1999.90;999.90;;;;;;;16.42;100.00;-18344.44;4810459;29;20350;-29
2021/05/16 10:10:15;;;;;;;1999.90;999.90;;;;;;;17.86;94.95;-18382.19;4812258;29;20205;-29
2021/05/16 10:13:05;;;;;;;1999.90;999.90;;;;;;;16.65;100.00;-18350.41;4810167;29;20286;-29
2021/05/16 10:15:52;;;;;;;1999.90;999.90;;;;;;;18.34;91.21;-18394.81;4810361;29;20523;-31
2021/05/16 10:18:41;;;;;;;1999.90;999.90;;;;;;;17.48;98.25;-18372.22;4810162;29;20490;-29
2021/05/16 10:21:31;;;;;;;1999.90;999.90;;;;;;;17.20;93.83;-18364.91;4812046;29;20253;-30
2021/05/16 10:24:22;;;;;;;1999.90;999.90;;;;;;;16.19;97.80;-18338.44;4810910;29;20213;-32
2021/05/16 10:27:24;;;;;;;1999.90;999.90;;;;;;;18.07;100.00;-18387.78;4793750;30;20553;-29
2021/05/16 10:30:14;;;;;;;1999.90;999.90;;;;;;;17.84;85.70;-18381.66;4791469;30;20777;-29
2021/05/16 10:33:03;;;;;;;1999.90;999.90;;;;;;;16.51;97.12;-18346.81;4792015;30;20214;-29
2021/05/16 10:35:50;;;;;;;1999.90;999.90;;;;;;;16.35;96.52;-18342.72;4796063;29;20210;-29
2021/05/16 10:38:42;;;;;;;1999.90;999.90;;;;;;;16.16;100.00;-18337.78;4811720;29;20263;-30
2021/05/16 10:41:31;;;;;;;1999.90;999.90;;;;;;;17.34;94.59;-18368.63;4810659;29;20342;-29
2021/05/16 10:44:31;;;;;;;1999.90;999.90;;;;;;;17.35;94.81;-18368.91;4817885;29;20676;-29
2021/05/16 10:48:05;;;;;;;1999.90;999.90;;;;;;;18.01;92.08;-18386.19;4815031;29;20210;-29
2021/05/16 10:50:57;;;;;;;1999.90;999.90;;;;;;;18.89;87.67;-18409.28;4808259;30;20264;-30
2021/05/16 10:53:43;;;;;;;1999.90;999.90;;;;;;;17.88;91.21;-18382.84;4820731;29;20211;-30
2021/05/16 10:56:31;;;;;;;1999.90;999.90;;;;;;;16.21;97.28;-18338.97;4818281;29;20496;-30
2021/05/16 10:59:36;;;;;;;1999.90;999.90;;;;;;;15.12;100.00;-18310.34;4823128;29;20256;-29
2021/05/16 11:02:59;;;;;;;1999.90;999.90;;;;;;;13.79;100.00;-18275.56;4828362;29;20271;-29
2021/05/16 11:05:55;;;;;;;1999.90;999.90;;;;;;;12.52;100.00;-18242.09;4820436;29;20214;-28
2021/05/16 11:09:10;;;;;;;1999.90;999.90;;;;;;;12.79;100.00;-18249.16;4815233;29;20204;-29
2021/05/16 11:12:02;;;;;;;1999.90;999.90;;;;;;;12.68;100.00;-18246.34;4822516;29;20209;-29
2021/05/16 11:14:52;;;;;;;1999.90;999.90;;;;;;;12.30;100.00;-18236.34;4818908;29;20213;-29
2021/05/16 11:17:38;;;;;;;1999.90;999.90;;;;;;;13.62;100.00;-18270.91;4815746;29;20485;-30
2021/05/16 11:20:29;;;;;;;1999.90;999.90;;;;;;;13.99;100.00;-18280.63;4818776;29;20238;-31
2021/05/16 11:23:26;;;;;;;1999.90;999.90;;;;;;;15.13;100.00;-18310.75;4817085;29;20478;-30
2021/05/16 11:26:13;;;;;;;1999.90;999.90;;;;;;;15.94;100.00;-18331.94;4796980;30;20217;-30
2021/05/16 11:29:06;;;;;;;1999.90;999.90;;;;;;;14.19;100.00;-18285.97;4796652;30;20326;-29
2021/05/16 11:32:11;;;;;;;1999.90;999.90;;;;;;;16.80;100.00;-18354.41;4807406;29;20213;-29
2021/05/16 11:35:18;;;;;;;1999.90;999.90;;;;;;;17.19;100.00;-18364.66;4822341;29;20236;-30
2021/05/16 11:38:07;;;;;;;1999.90;999.90;;;;;;;15.75;100.00;-18327.00;4819157;29;20213;-29
2021/05/16 11:40:56;;;;;;;1999.90;999.90;;;;;;;15.74;100.00;-18326.75;4811480;29;20376;-29
2021/05/16 11:43:43;;;;;;;1999.90;999.90;;;;;;;17.21;100.00;-18365.19;4812948;29;20225;-28
2021/05/16 11:46:34;;;;;;;1999.90;999.90;;;;;;;17.49;100.00;-18372.50;4812671;29;20209;-29
2021/05/16 11:49:31;;;;;;;1999.90;999.90;;;;;;;16.58;100.00;-18348.69;4812157;29;20213;-29
2021/05/16 11:52:16;;;;;;;1999.90;999.90;;;;;;;16.62;100.00;-18349.75;4812631;29;20632;-29
2021/05/16 11:55:05;;;;;;;1999.90;999.90;;;;;;;15.91;100.00;-18331.13;4813004;29;20229;-28
2021/05/16 11:57:57;;;;;;;1999.90;999.90;;;;;;;16.40;100.00;-18343.91;4812028;29;20209;-29
2021/05/16 12:00:44;;;;;;;1999.90;999.90;;;;;;;16.85;100.00;-18355.75;4811828;29;20508;-29
2021/05/16 12:03:30;;;;;;;1999.90;999.90;;;;;;;17.02;100.00;-18360.13;4812532;29;20283;-29
2021/05/16 12:06:22;;;;;;;1999.90;999.90;;;;;;;16.79;100.00;-18354.28;4812572;29;20510;-29
2021/05/16 12:09:18;;;;;;;1999.90;999.90;;;;;;;16.51;100.00;-18346.81;4812323;29;20313;-30
2021/05/16 12:12:17;;;;;;;1999.90;999.90;;;;;;;16.71;100.00;-18352.03;4812289;29;20656;-30
2021/05/16 12:15:06;;;;;;;1999.90;999.90;;;;;;;16.17;100.00;-18337.91;4810882;29;20627;-30
2021/05/16 12:17:56;;;;;;;1999.90;999.90;;;;;;;15.42;100.00;-18318.34;4804192;29;20213;-30
2021/05/16 12:20:42;;;;;;;1999.90;999.90;;;;;;;16.51;100.00;-18346.81;4793028;30;20239;-30